Time;durP1;ratioP1;P1;durP2;ratioP2;P2;SDS_P1;SDS_P2;PMS_P1;PMS_P2;Temp;Humidity;BMP_temperature;BMP_pressure;BME280_temperature;BME280_humidity;BME280_pressure;Samples;Min_cycle;Max_cycle;Signal;HPM_P1;HPM_P2
2024/04/19 00:02:22;;;;;;;6.13;2.47;;;;;;;;;;5264678;27;20006;-78
2024/04/19 00:04:47;;;;;;;4.35;2.53;;;;;;;;;;5236173;27;20049;-79
2024/04/19 00:07:15;;;;;;;4.97;2.53;;;;;;;;;;5236458;27;20049;-78
2024/04/19 00:09:44;;;;;;;8.13;3.60;;;;;;;;;;5234133;27;20008;-80
2024/04/19 00:12:10;;;;;;;4.18;2.70;;;;;;;;;;5290622;27;20002;-79
2024/04/19 00:14:36;;;;;;;6.70;2.63;;;;;;;;;;5260325;26;20083;-80
2024/04/19 00:17:04;;;;;;;7.55;2.47;;;;;;;;;;5262066;27;20013;-78
2024/04/19 00:19:32;;;;;;;4.32;2.45;;;;;;;;;;5289321;27;20007;-79
2024/04/19 00:21:58;;;;;;;4.68;2.35;;;;;;;;;;5260227;27;20016;-79
2024/04/19 00:24:24;;;;;;;6.18;2.83;;;;;;;;;;5288570;27;20006;-78
2024/04/19 00:26:52;;;;;;;5.35;2.40;;;;;;;;;;5231480;27;20013;-77
2024/04/19 00:29:41;;;;;;;9.90;2.88;;;;;;;;;;5263587;27;20057;-79
2024/04/19 00:32:09;;;;;;;5.82;2.40;;;;;;;;;;5233073;27;20011;-80
2024/04/19 00:34:35;;;;;;;6.45;2.63;;;;;;;;;;5230997;27;20006;-80
2024/04/19 00:37:01;;;;;;;7.50;2.55;;;;;;;;;;5259902;27;20017;-78
2024/04/19 00:39:26;;;;;;;6.68;3.10;;;;;;;;;;5259920;27;20010;-79
2024/04/19 00:41:53;;;;;;;4.38;2.03;;;;;;;;;;5259919;27;20002;-80
2024/04/19 00:44:19;;;;;;;4.18;2.38;;;;;;;;;;5258997;27;20015;-79
2024/04/19 00:46:48;;;;;;;6.43;2.30;;;;;;;;;;5257221;27;20005;-80
2024/04/19 00:49:29;;;;;;;5.30;2.35;;;;;;;;;;5233298;27;20083;-80
2024/04/19 00:51:56;;;;;;;4.15;2.38;;;;;;;;;;5230429;27;20076;-79
2024/04/19 00:54:25;;;;;;;4.47;2.47;;;;;;;;;;5258020;27;20028;-79
2024/04/19 00:56:51;;;;;;;5.20;2.22;;;;;;;;;;5285440;27;20368;-80
2024/04/19 00:59:17;;;;;;;4.65;2.10;;;;;;;;;;5257856;27;20009;-78
2024/04/19 01:01:46;;;;;;;7.18;2.45;;;;;;;;;;5285610;27;20076;-79
2024/04/19 01:04:11;;;;;;;5.90;2.50;;;;;;;;;;5251890;27;20003;-80
2024/04/19 01:06:37;;;;;;;5.88;2.28;;;;;;;;;;5224222;27;19998;-80
2024/04/19 01:09:03;;;;;;;5.63;2.03;;;;;;;;;;5196552;27;20002;-80
2024/04/19 01:11:29;;;;;;;6.03;2.30;;;;;;;;;;5251572;27;20349;-78
2024/04/19 01:13:56;;;;;;;6.57;2.22;;;;;;;;;;5237956;27;20020;-79
2024/04/19 01:16:21;;;;;;;3.60;1.95;;;;;;;;;;5230869;27;20008;-80
2024/04/19 01:18:53;;;;;;;4.30;1.77;;;;;;;;;;5280826;27;20007;-79
2024/04/19 01:21:20;;;;;;;5.78;2.22;;;;;;;;;;5282420;27;19998;-79
2024/04/19 01:23:46;;;;;;;6.97;2.30;;;;;;;;;;5225263;27;20010;-80
2024/04/19 01:26:12;;;;;;;7.85;3.67;;;;;;;;;;5224247;27;20009;-79
2024/04/19 01:28:37;;;;;;;7.45;2.22;;;;;;;;;;5223905;27;20010;-78
2024/04/19 01:31:03;;;;;;;6.10;2.13;;;;;;;;;;5245469;27;20024;-79
2024/04/19 01:33:28;;;;;;;8.38;2.17;;;;;;;;;;5285443;27;20450;-78
2024/04/19 01:35:54;;;;;;;4.85;2.08;;;;;;;;;;5258637;27;20353;-78
2024/04/19 01:38:39;;;;;;;7.10;1.80;;;;;;;;;;5263851;27;20060;-79
2024/04/19 01:41:05;;;;;;;6.38;2.20;;;;;;;;;;5231229;27;20002;-78
2024/04/19 01:43:31;;;;;;;11.10;2.22;;;;;;;;;;5286658;27;20049;-80
2024/04/19 01:45:56;;;;;;;5.35;2.20;;;;;;;;;;5254964;27;20358;-78
2024/04/19 01:48:22;;;;;;;4.38;1.90;;;;;;;;;;5234881;27;20690;-80
2024/04/19 01:50:48;;;;;;;4.45;1.80;;;;;;;;;;5291787;27;19998;-78
2024/04/19 01:53:13;;;;;;;4.65;2.10;;;;;;;;;;5260622;27;20001;-79
2024/04/19 01:55:39;;;;;;;5.22;2.03;;;;;;;;;;5256736;27;20002;-79
2024/04/19 01:58:05;;;;;;;4.55;2.00;;;;;;;;;;5256721;27;20009;-80
2024/04/19 02:00:31;;;;;;;5.88;2.05;;;;;;;;;;5258683;27;20329;-78
2024/04/19 02:02:56;;;;;;;5.53;1.83;;;;;;;;;;5286827;27;20708;-79
2024/04/19 02:05:22;;;;;;;6.50;1.80;;;;;;;;;;5253384;27;20011;-79
2024/04/19 02:07:47;;;;;;;7.68;2.20;;;;;;;;;;5255730;27;20443;-80
2024/04/19 02:10:13;;;;;;;6.70;2.20;;;;;;;;;;5255231;27;20027;-79
2024/04/19 02:12:39;;;;;;;4.72;2.08;;;;;;;;;;5252756;27;20018;-78
2024/04/19 02:15:04;;;;;;;5.75;1.90;;;;;;;;;;5200706;27;20069;-77
2024/04/19 02:17:31;;;;;;;4.75;2.15;;;;;;;;;;5262646;27;20030;-80
2024/04/19 02:19:59;;;;;;;9.10;1.80;;;;;;;;;;5245479;27;20005;-79
2024/04/19 02:22:25;;;;;;;4.65;1.55;;;;;;;;;;5298774;27;20002;-80
2024/04/19 02:24:50;;;;;;;3.92;1.75;;;;;;;;;;5271113;27;20002;-78
2024/04/19 02:32:45;;;;;;;4.50;1.63;;;;;;;;;;5294134;27;20005;-78
2024/04/19 02:35:10;;;;;;;3.58;1.75;;;;;;;;;;5257164;27;19998;-77
2024/04/19 02:37:36;;;;;;;4.40;1.60;;;;;;;;;;5285320;27;20005;-79
2024/04/19 02:40:02;;;;;;;4.90;1.83;;;;;;;;;;5258825;27;20313;-80
2024/04/19 02:42:27;;;;;;;4.13;1.55;;;;;;;;;;5314074;27;20348;-78
2024/04/19 02:44:53;;;;;;;6.18;1.50;;;;;;;;;;5282123;27;20001;-80
2024/04/19 02:47:18;;;;;;;3.17;1.67;;;;;;;;;;5254207;27;20009;-78
2024/04/19 02:49:45;;;;;;;4.82;1.50;;;;;;;;;;5254319;27;20049;-78
2024/04/19 02:52:10;;;;;;;5.32;1.48;;;;;;;;;;5254553;27;20524;-80
2024/04/19 02:54:36;;;;;;;2.40;1.33;;;;;;;;;;5281957;27;20002;-79
2024/04/19 02:57:02;;;;;;;4.32;1.70;;;;;;;;;;5280934;27;20017;-79
2024/04/19 02:59:27;;;;;;;4.70;1.63;;;;;;;;;;5285077;27;20002;-79
2024/04/19 03:01:53;;;;;;;3.45;1.58;;;;;;;;;;5315173;27;20461;-78
2024/04/19 03:04:34;;;;;;;4.10;1.75;;;;;;;;;;5226726;27;20007;-79
2024/04/19 03:07:00;;;;;;;6.57;1.35;;;;;;;;;;5302372;27;20017;-78
2024/04/19 03:09:26;;;;;;;4.90;1.73;;;;;;;;;;5284975;27;20001;-78
2024/04/19 03:11:52;;;;;;;6.35;1.48;;;;;;;;;;5256619;27;19993;-78
2024/04/19 03:14:17;;;;;;;4.05;1.48;;;;;;;;;;5315549;27;20072;-78
2024/04/19 03:16:43;;;;;;;3.05;1.48;;;;;;;;;;5257994;27;20009;-79
2024/04/19 03:19:11;;;;;;;2.90;1.30;;;;;;;;;;5286099;27;20009;-80
2024/04/19 03:21:37;;;;;;;5.60;1.63;;;;;;;;;;5258530;27;20034;-79
2024/04/19 03:24:03;;;;;;;5.00;1.85;;;;;;;;;;5258715;27;20017;-81
2024/04/19 03:26:28;;;;;;;2.83;1.40;;;;;;;;;;5286548;27;20001;-80
2024/04/19 03:28:54;;;;;;;4.68;1.65;;;;;;;;;;5317081;27;20002;-80
2024/04/19 03:31:20;;;;;;;4.25;1.30;;;;;;;;;;5288177;27;20001;-79
2024/04/19 03:33:45;;;;;;;2.95;1.85;;;;;;;;;;5317093;26;20001;-79
2024/04/19 03:36:11;;;;;;;6.15;1.40;;;;;;;;;;5231991;27;20002;-79
2024/04/19 03:38:37;;;;;;;5.25;1.40;;;;;;;;;;5317673;27;20005;-81
2024/04/19 03:41:04;;;;;;;3.27;1.53;;;;;;;;;;5317463;27;20012;-81
2024/04/19 03:43:40;;;;;;;6.07;1.52;;;;;;;;;;5286566;27;20001;-79
2024/04/19 03:46:06;;;;;;;4.43;1.77;;;;;;;;;;5258961;27;20002;-80
2024/04/19 03:48:31;;;;;;;3.95;1.50;;;;;;;;;;5285256;27;20005;-80
2024/04/19 03:50:57;;;;;;;4.72;1.67;;;;;;;;;;5257932;27;19998;-78
2024/04/19 03:53:23;;;;;;;4.22;1.60;;;;;;;;;;5317258;27;20015;-79
2024/04/19 03:55:48;;;;;;;5.97;2.15;;;;;;;;;;5287173;27;20009;-78
2024/04/19 03:58:14;;;;;;;6.03;1.42;;;;;;;;;;5286305;27;20474;-79
2024/04/19 04:00:39;;;;;;;4.95;1.70;;;;;;;;;;5231327;27;20001;-80
2024/04/19 04:03:06;;;;;;;2.92;1.42;;;;;;;;;;5284053;27;20008;-79
2024/04/19 04:05:31;;;;;;;4.85;1.75;;;;;;;;;;5284012;27;20033;-80
2024/04/19 04:07:57;;;;;;;4.93;2.10;;;;;;;;;;5285455;27;20142;-79
2024/04/19 04:10:23;;;;;;;7.13;1.88;;;;;;;;;;5255952;27;20009;-78
2024/04/19 04:13:09;;;;;;;8.38;1.80;;;;;;;;;;5264903;27;20021;-77
2024/04/19 04:15:34;;;;;;;4.72;1.65;;;;;;;;;;5315997;27;19994;-79
2024/04/19 04:18:01;;;;;;;3.55;1.70;;;;;;;;;;5256984;27;20012;-80
2024/04/19 04:20:27;;;;;;;4.22;1.92;;;;;;;;;;5256979;27;20029;-79
2024/04/19 04:22:53;;;;;;;5.55;2.10;;;;;;;;;;5257149;27;19998;-80
2024/04/19 04:25:19;;;;;;;7.20;2.40;;;;;;;;;;5286317;27;20457;-80
2024/04/19 04:27:45;;;;;;;5.80;1.92;;;;;;;;;;5257504;27;20006;-78
2024/04/19 04:30:11;;;;;;;7.07;2.00;;;;;;;;;;5232309;27;20046;-79
2024/04/19 04:32:36;;;;;;;7.20;2.28;;;;;;;;;;5285421;26;20345;-79
2024/04/19 04:35:02;;;;;;;6.18;2.40;;;;;;;;;;5230328;27;20002;-80
2024/04/19 04:37:28;;;;;;;10.88;2.67;;;;;;;;;;5315222;27;20364;-78
2024/04/19 04:39:54;;;;;;;5.30;2.20;;;;;;;;;;5285239;27;20034;-80
2024/04/19 04:42:20;;;;;;;6.80;2.30;;;;;;;;;;5229517;27;20013;-80
2024/04/19 04:44:46;;;;;;;6.55;2.72;;;;;;;;;;5257272;27;20013;-79
2024/04/19 04:47:11;;;;;;;5.97;2.25;;;;;;;;;;5257290;27;20001;-81
2024/04/19 04:49:37;;;;;;;8.00;2.50;;;;;;;;;;5229110;27;20083;-80
2024/04/19 04:52:03;;;;;;;7.18;2.40;;;;;;;;;;5258405;27;20013;-80
2024/04/19 04:54:29;;;;;;;4.13;2.10;;;;;;;;;;5257873;27;20001;-79
2024/04/19 04:56:54;;;;;;;6.35;2.47;;;;;;;;;;5229652;27;20515;-80
2024/04/19 04:59:20;;;;;;;8.43;2.60;;;;;;;;;;5230872;27;20001;-81
2024/04/19 05:01:46;;;;;;;8.38;2.75;;;;;;;;;;5259101;27;20008;-80
2024/04/19 05:04:14;;;;;;;5.05;2.67;;;;;;;;;;5260188;27;20012;-79
2024/04/19 05:06:40;;;;;;;6.88;2.80;;;;;;;;;;5260207;27;20006;-80
2024/04/19 05:09:08;;;;;;;9.00;3.10;;;;;;;;;;5261346;27;20500;-80
2024/04/19 05:11:33;;;;;;;8.05;3.10;;;;;;;;;;5261416;27;20001;-80
2024/04/19 05:14:03;;;;;;;9.13;3.22;;;;;;;;;;5261973;27;20368;-78
2024/04/19 05:16:28;;;;;;;7.25;3.05;;;;;;;;;;5290333;27;20006;-80
2024/04/19 05:18:56;;;;;;;6.63;3.22;;;;;;;;;;5263792;27;20001;-81
2024/04/19 05:21:22;;;;;;;7.10;2.95;;;;;;;;;;5263701;27;20022;-81
2024/04/19 05:23:47;;;;;;;8.77;4.55;;;;;;;;;;5235772;27;20534;-80
2024/04/19 05:26:16;;;;;;;5.75;3.00;;;;;;;;;;5290581;27;20385;-80
2024/04/19 05:28:41;;;;;;;9.25;3.50;;;;;;;;;;5261179;27;20053;-80
2024/04/19 05:31:07;;;;;;;8.63;3.78;;;;;;;;;;5259970;27;20001;-81
2024/04/19 05:33:33;;;;;;;6.93;3.47;;;;;;;;;;5287544;27;20026;-81
2024/04/19 05:35:59;;;;;;;8.88;3.80;;;;;;;;;;5257971;27;20092;-79
2024/04/19 05:38:25;;;;;;;8.00;3.67;;;;;;;;;;5256720;27;20079;-80
2024/04/19 05:40:50;;;;;;;6.60;3.63;;;;;;;;;;5257993;27;20453;-79
2024/04/19 05:43:17;;;;;;;8.38;3.45;;;;;;;;;;5257335;27;20082;-79
2024/04/19 05:45:43;;;;;;;7.40;3.88;;;;;;;;;;5255331;27;20002;-79
2024/04/19 05:48:09;;;;;;;10.00;3.30;;;;;;;;;;5284962;27;20337;-79
2024/04/19 05:50:35;;;;;;;7.32;3.75;;;;;;;;;;5254668;27;20005;-80
2024/04/19 05:53:00;;;;;;;16.08;3.88;;;;;;;;;;5228536;27;19997;-80
2024/04/19 05:55:26;;;;;;;6.10;3.50;;;;;;;;;;5257996;27;20002;-80
2024/04/19 05:57:52;;;;;;;10.57;3.80;;;;;;;;;;5256789;27;20046;-82
2024/04/19 06:00:18;;;;;;;6.15;3.35;;;;;;;;;;5229915;27;20383;-80
2024/04/19 06:02:44;;;;;;;6.38;3.20;;;;;;;;;;5252786;26;20013;-79
2024/04/19 06:05:10;;;;;;;7.57;3.50;;;;;;;;;;5254532;26;20006;-80
2024/04/19 06:07:35;;;;;;;8.05;3.58;;;;;;;;;;5241034;26;20002;-80
2024/04/19 06:10:05;;;;;;;6.38;3.88;;;;;;;;;;5274804;26;20002;-79
2024/04/19 06:12:31;;;;;;;7.07;3.50;;;;;;;;;;5253096;26;21151;-79
2024/04/19 06:14:57;;;;;;;12.05;3.83;;;;;;;;;;5278129;27;20020;-80
2024/04/19 06:17:22;;;;;;;6.85;3.75;;;;;;;;;;5243524;26;20454;-80
2024/04/19 06:19:48;;;;;;;9.55;4.00;;;;;;;;;;5248887;26;20011;-80
2024/04/19 06:22:14;;;;;;;8.65;3.92;;;;;;;;;;5222881;26;20081;-78
2024/04/19 06:24:40;;;;;;;10.98;4.35;;;;;;;;;;5241628;26;20038;-79
2024/04/19 06:27:06;;;;;;;10.48;4.22;;;;;;;;;;5244834;26;20010;-79
2024/04/19 06:29:32;;;;;;;8.65;3.88;;;;;;;;;;5239584;26;20018;-79
2024/04/19 06:31:57;;;;;;;5.65;3.30;;;;;;;;;;5253775;27;20016;-83
2024/04/19 06:34:23;;;;;;;9.55;4.28;;;;;;;;;;5236437;26;20021;-79
2024/04/19 06:36:49;;;;;;;7.38;4.45;;;;;;;;;;5235098;26;20109;-80
2024/04/19 06:39:27;;;;;;;7.40;4.22;;;;;;;;;;5282449;26;20002;-78
2024/04/19 06:41:53;;;;;;;8.68;4.43;;;;;;;;;;5307812;26;20350;-80
2024/04/19 06:44:19;;;;;;;11.65;4.40;;;;;;;;;;5304918;26;20020;-79
2024/04/19 06:46:45;;;;;;;7.47;3.88;;;;;;;;;;5281967;26;20000;-80
2024/04/19 06:49:10;;;;;;;7.68;3.78;;;;;;;;;;5244166;26;20042;-79
2024/04/19 06:51:37;;;;;;;9.32;3.97;;;;;;;;;;5227036;26;20391;-80
2024/04/19 06:54:06;;;;;;;10.20;3.95;;;;;;;;;;5256369;26;20010;-80
2024/04/19 06:56:32;;;;;;;9.05;3.88;;;;;;;;;;5253049;26;20057;-82
2024/04/19 06:58:57;;;;;;;17.83;4.25;;;;;;;;;;5222840;26;20018;-80
2024/04/19 07:01:23;;;;;;;7.80;3.95;;;;;;;;;;5264480;26;20005;-81
2024/04/19 07:03:52;;;;;;;6.60;3.53;;;;;;;;;;5245502;26;20006;-81
2024/04/19 07:06:18;;;;;;;11.68;4.35;;;;;;;;;;5257205;27;20009;-81
2024/04/19 07:08:45;;;;;;;6.63;3.78;;;;;;;;;;5262617;27;20014;-81
2024/04/19 07:11:11;;;;;;;7.43;3.60;;;;;;;;;;5290445;26;20002;-80
2024/04/19 07:13:37;;;;;;;5.38;3.33;;;;;;;;;;5263018;26;20047;-80
2024/04/19 07:16:02;;;;;;;10.48;4.50;;;;;;;;;;5285112;27;20025;-80
2024/04/19 07:18:28;;;;;;;7.15;4.20;;;;;;;;;;5254820;26;20001;-81
2024/04/19 07:20:54;;;;;;;5.50;4.03;;;;;;;;;;5231863;26;20002;-80
2024/04/19 07:23:23;;;;;;;8.77;4.30;;;;;;;;;;5236358;26;20006;-80
2024/04/19 07:25:49;;;;;;;5.82;3.45;;;;;;;;;;5262357;26;20013;-79
2024/04/19 07:28:15;;;;;;;8.57;3.53;;;;;;;;;;5259846;26;20030;-81
2024/04/19 07:30:42;;;;;;;8.05;4.07;;;;;;;;;;5236247;26;20013;-81
2024/04/19 07:33:08;;;;;;;7.32;3.95;;;;;;;;;;5245602;26;20002;-80
2024/04/19 07:35:33;;;;;;;9.43;4.30;;;;;;;;;;5313080;26;20350;-80
2024/04/19 07:37:59;;;;;;;6.15;3.67;;;;;;;;;;5318956;26;20013;-81
2024/04/19 07:40:25;;;;;;;7.53;4.15;;;;;;;;;;5256167;26;20052;-80
2024/04/19 07:42:51;;;;;;;6.82;3.03;;;;;;;;;;5264452;26;20016;-80
2024/04/19 07:45:22;;;;;;;9.27;3.20;;;;;;;;;;5280533;26;19998;-79
2024/04/19 07:47:51;;;;;;;9.95;3.72;;;;;;;;;;5281774;26;20009;-79
2024/04/19 07:50:17;;;;;;;5.30;2.90;;;;;;;;;;5267548;26;20006;-80
2024/04/19 07:52:42;;;;;;;4.03;2.40;;;;;;;;;;5240551;26;20510;-81
2024/04/19 07:55:08;;;;;;;6.80;2.58;;;;;;;;;;5258443;26;20016;-78
2024/04/19 07:57:34;;;;;;;5.78;2.80;;;;;;;;;;5283290;26;20025;-80
2024/04/19 08:00:01;;;;;;;5.00;2.78;;;;;;;;;;5267918;26;20450;-79
2024/04/19 08:02:38;;;;;;;4.68;2.70;;;;;;;;;;5258206;26;20480;-80
2024/04/19 08:05:04;;;;;;;5.07;2.80;;;;;;;;;;5246493;26;20014;-80
2024/04/19 08:07:30;;;;;;;7.53;2.97;;;;;;;;;;5286923;26;20006;-80
2024/04/19 08:09:59;;;;;;;5.30;2.90;;;;;;;;;;5286612;26;20022;-81
2024/04/19 08:12:25;;;;;;;6.72;3.20;;;;;;;;;;5259786;26;20002;-81
2024/04/19 08:14:51;;;;;;;8.02;2.95;;;;;;;;;;5229452;26;20025;-79
2024/04/19 08:17:16;;;;;;;7.75;2.90;;;;;;;;;;5258793;26;19998;-79
2024/04/19 08:19:42;;;;;;;5.63;2.92;;;;;;;;;;5263781;26;20005;-81
2024/04/19 08:22:09;;;;;;;6.38;3.00;;;;;;;;;;5274312;27;19997;-81
2024/04/19 08:24:35;;;;;;;7.40;2.92;;;;;;;;;;5322523;26;20021;-81
2024/04/19 08:27:01;;;;;;;4.45;2.72;;;;;;;;;;5261327;26;20007;-80
2024/04/19 08:29:27;;;;;;;7.28;3.20;;;;;;;;;;5287160;26;20028;-78
2024/04/19 08:31:53;;;;;;;5.13;2.63;;;;;;;;;;5281239;26;20018;-79
2024/04/19 08:34:19;;;;;;;4.55;2.72;;;;;;;;;;5256441;26;20026;-78
2024/04/19 08:36:45;;;;;;;8.55;2.90;;;;;;;;;;5283537;26;20009;-78
2024/04/19 08:39:11;;;;;;;6.95;3.00;;;;;;;;;;5253802;26;20005;-81
2024/04/19 08:41:37;;;;;;;4.45;2.65;;;;;;;;;;5285894;26;20001;-81
2024/04/19 08:44:03;;;;;;;6.97;2.65;;;;;;;;;;5288132;26;20423;-81
2024/04/19 08:46:32;;;;;;;5.85;2.60;;;;;;;;;;5248216;26;20017;-81
2024/04/19 08:49:01;;;;;;;3.70;2.30;;;;;;;;;;5228691;26;20006;-81
2024/04/19 08:51:27;;;;;;;3.58;2.10;;;;;;;;;;5231867;26;20006;-82
2024/04/19 08:53:53;;;;;;;3.83;2.25;;;;;;;;;;5280624;27;20385;-81
2024/04/19 08:56:19;;;;;;;4.90;2.00;;;;;;;;;;5262569;27;20039;-81
2024/04/19 08:58:45;;;;;;;2.78;1.90;;;;;;;;;;5269183;26;20008;-80
2024/04/19 09:01:12;;;;;;;7.10;2.42;;;;;;;;;;5256194;26;20010;-79
2024/04/19 09:03:40;;;;;;;5.43;2.28;;;;;;;;;;5222403;26;20020;-81
2024/04/19 09:06:07;;;;;;;5.05;2.85;;;;;;;;;;5249759;26;20010;-83
2024/04/19 09:08:38;;;;;;;3.92;2.50;;;;;;;;;;5257608;26;20024;-80
2024/04/19 09:11:15;;;;;;;7.78;2.15;;;;;;;;;;5272705;26;20020;-81
2024/04/19 09:13:43;;;;;;;3.72;2.00;;;;;;;;;;5258166;26;20012;-81
2024/04/19 09:16:10;;;;;;;4.38;2.08;;;;;;;;;;5244246;26;20013;-81
2024/04/19 09:18:37;;;;;;;3.75;1.98;;;;;;;;;;5261098;27;20017;-83
2024/04/19 09:21:03;;;;;;;5.47;2.30;;;;;;;;;;5259312;27;20002;-79
2024/04/19 09:23:29;;;;;;;5.32;1.90;;;;;;;;;;5244075;26;19998;-80
2024/04/19 09:25:56;;;;;;;3.75;1.92;;;;;;;;;;5274044;26;20010;-81
2024/04/19 09:28:23;;;;;;;3.00;1.67;;;;;;;;;;5253053;27;20377;-80
2024/04/19 09:30:53;;;;;;;2.42;1.20;;;;;;;;;;5258891;26;20025;-80
2024/04/19 09:33:20;;;;;;;2.58;1.67;;;;;;;;;;5262311;27;20034;-82
2024/04/19 09:35:52;;;;;;;4.18;1.50;;;;;;;;;;5222630;26;20021;-80
2024/04/19 09:38:21;;;;;;;2.58;1.30;;;;;;;;;;5257013;27;20006;-82
2024/04/19 09:40:47;;;;;;;4.43;1.33;;;;;;;;;;5252436;27;20009;-79
2024/04/19 09:43:20;;;;;;;2.03;1.30;;;;;;;;;;5292726;27;20467;-82
2024/04/19 09:45:48;;;;;;;4.80;1.50;;;;;;;;;;5288476;27;20009;-80
2024/04/19 09:48:25;;;;;;;2.70;1.30;;;;;;;;;;5262323;26;20001;-82
2024/04/19 09:50:53;;;;;;;4.38;1.20;;;;;;;;;;5284961;27;20080;-82
2024/04/19 09:53:26;;;;;;;4.13;1.42;;;;;;;;;;5248652;27;19998;-82
2024/04/19 09:56:06;;;;;;;5.30;1.45;;;;;;;;;;5238219;27;20034;-81
2024/04/19 09:58:31;;;;;;;2.97;1.40;;;;;;;;;;5237709;27;20047;-80
2024/04/19 10:00:58;;;;;;;2.28;1.20;;;;;;;;;;5234901;27;20006;-81
2024/04/19 10:03:25;;;;;;;3.00;1.00;;;;;;;;;;5240392;27;20002;-82
2024/04/19 10:05:51;;;;;;;3.40;1.48;;;;;;;;;;5290035;26;20018;-81
2024/04/19 10:08:16;;;;;;;2.15;1.27;;;;;;;;;;5294170;27;20029;-82
2024/04/19 10:10:43;;;;;;;3.97;1.40;;;;;;;;;;5264657;27;20015;-83
2024/04/19 10:13:09;;;;;;;5.75;1.05;;;;;;;;;;5272748;26;20021;-82
2024/04/19 10:15:35;;;;;;;2.78;1.50;;;;;;;;;;5247093;27;20130;-81
2024/04/19 10:30:04;;;;;;;15.77;1.40;;;;;;;;;;6410506;21;20010;31
2024/04/19 10:32:30;;;;;;;1.88;1.00;;;;;;;;;;5102726;27;20013;-81
2024/04/19 10:34:56;;;;;;;2.63;1.20;;;;;;;;;;5129285;27;20036;-82
2024/04/19 10:37:22;;;;;;;2.60;1.50;;;;;;;;;;5087281;27;20010;-81
2024/04/19 10:39:48;;;;;;;3.50;1.38;;;;;;;;;;5130461;27;20018;-81
2024/04/19 10:42:18;;;;;;;2.00;1.30;;;;;;;;;;5117419;27;20017;-82
2024/04/19 10:44:46;;;;;;;3.50;1.58;;;;;;;;;;5138368;27;20132;-81
2024/04/19 10:47:12;;;;;;;4.07;1.42;;;;;;;;;;5082047;28;20014;-82
2024/04/19 10:49:38;;;;;;;5.93;1.30;;;;;;;;;;5106726;27;20014;-80
2024/04/19 10:52:05;;;;;;;3.35;1.33;;;;;;;;;;5105667;28;20188;-80
2024/04/19 10:54:30;;;;;;;2.10;1.10;;;;;;;;;;5089923;27;20055;-82
2024/04/19 10:56:58;;;;;;;5.43;1.20;;;;;;;;;;5117057;27;20010;-81
2024/04/19 10:59:24;;;;;;;1.77;0.93;;;;;;;;;;5093143;27;20113;-83
2024/04/19 11:01:50;;;;;;;3.88;1.00;;;;;;;;;;5065819;28;20014;-79
2024/04/19 11:04:17;;;;;;;3.63;1.13;;;;;;;;;;5107248;27;20017;-78
2024/04/19 11:06:43;;;;;;;5.72;1.98;;;;;;;;;;5094387;27;20018;-81
2024/04/19 11:09:10;;;;;;;1.20;0.63;;;;;;;;;;5105777;28;20467;-80
2024/04/19 11:11:39;;;;;;;1.60;0.80;;;;;;;;;;5096464;28;20080;-81
2024/04/19 11:14:09;;;;;;;1.85;0.80;;;;;;;;;;5069681;27;20075;-81
2024/04/19 11:16:35;;;;;;;3.35;1.13;;;;;;;;;;5150417;27;20063;-81
2024/04/19 11:19:00;;;;;;;5.78;1.10;;;;;;;;;;5150394;27;20021;-81
2024/04/19 11:21:27;;;;;;;2.63;1.23;;;;;;;;;;5127003;27;20116;-82
2024/04/19 11:23:52;;;;;;;4.97;1.02;;;;;;;;;;5157149;27;20098;-80
2024/04/19 11:26:18;;;;;;;2.60;1.10;;;;;;;;;;5123740;27;20034;-81
2024/04/19 11:28:46;;;;;;;3.05;1.20;;;;;;;;;;5074155;28;20009;-81
2024/04/19 11:31:15;;;;;;;3.00;1.20;;;;;;;;;;5123655;27;20013;-82
2024/04/19 11:33:41;;;;;;;5.78;1.50;;;;;;;;;;5082465;27;20016;-81
2024/04/19 11:36:08;;;;;;;8.25;1.10;;;;;;;;;;5107321;27;20005;-82
2024/04/19 11:38:35;;;;;;;4.22;1.08;;;;;;;;;;5132431;27;20053;-81
2024/04/19 11:41:01;;;;;;;2.80;1.13;;;;;;;;;;5135108;27;20017;-83
2024/04/19 11:43:30;;;;;;;1.55;0.88;;;;;;;;;;5054997;27;20013;-82
2024/04/19 11:45:56;;;;;;;5.63;1.20;;;;;;;;;;5125825;27;20021;-82
2024/04/19 11:48:25;;;;;;;1.27;0.70;;;;;;;;;;5099641;27;20020;-82
2024/04/19 11:50:54;;;;;;;1.52;0.98;;;;;;;;;;5079450;27;20009;-81
2024/04/19 11:53:22;;;;;;;3.08;1.20;;;;;;;;;;5102540;28;20020;-82
2024/04/19 11:55:52;;;;;;;3.28;1.15;;;;;;;;;;5120480;27;20013;-81
2024/04/19 11:58:19;;;;;;;2.15;1.00;;;;;;;;;;5109988;27;20020;-83
2024/04/19 12:00:45;;;;;;;2.55;1.05;;;;;;;;;;5094447;27;20021;-80
2024/04/19 12:03:11;;;;;;;2.67;1.30;;;;;;;;;;5105796;27;20005;-82
2024/04/19 12:05:39;;;;;;;2.20;1.08;;;;;;;;;;5098463;27;20092;-82
2024/04/19 12:08:05;;;;;;;2.40;1.23;;;;;;;;;;5133427;27;20017;-82
2024/04/19 12:10:31;;;;;;;2.72;1.20;;;;;;;;;;5104030;28;20010;-83
2024/04/19 12:12:57;;;;;;;1.88;1.00;;;;;;;;;;5113790;28;20026;-82
2024/04/19 12:15:24;;;;;;;6.43;1.25;;;;;;;;;;5105758;27;20023;-82
2024/04/19 12:17:51;;;;;;;1.75;1.02;;;;;;;;;;5096339;27;20062;-83
2024/04/19 12:20:19;;;;;;;2.05;1.02;;;;;;;;;;5080554;27;20017;-82
2024/04/19 12:22:45;;;;;;;4.93;2.40;;;;;;;;;;5112423;27;20006;-83
2024/04/19 12:25:12;;;;;;;3.10;1.30;;;;;;;;;;5121647;27;20017;-82
2024/04/19 12:27:39;;;;;;;3.42;1.13;;;;;;;;;;5105686;28;20014;-81
2024/04/19 12:30:05;;;;;;;4.15;1.70;;;;;;;;;;5105990;27;20029;-82
2024/04/19 12:32:32;;;;;;;2.53;1.30;;;;;;;;;;5127048;27;20085;-82
2024/04/19 12:34:59;;;;;;;2.92;1.55;;;;;;;;;;5107456;27;20013;-82
2024/04/19 12:37:29;;;;;;;3.85;1.45;;;;;;;;;;5078753;28;20013;-83
2024/04/19 12:39:58;;;;;;;3.65;1.67;;;;;;;;;;5114429;28;20009;-82
2024/04/19 12:42:25;;;;;;;3.38;1.63;;;;;;;;;;5061176;28;20025;-82
2024/04/19 12:44:55;;;;;;;2.70;1.27;;;;;;;;;;5099939;28;20003;-83
2024/04/19 12:47:29;;;;;;;4.00;1.92;;;;;;;;;;5137638;27;20446;-81
2024/04/19 12:49:55;;;;;;;2.95;1.50;;;;;;;;;;5150791;27;20017;-83
2024/04/19 12:52:23;;;;;;;7.40;1.80;;;;;;;;;;5102696;28;20013;-83
2024/04/19 12:54:52;;;;;;;2.35;1.30;;;;;;;;;;5105818;27;20312;-82
2024/04/19 12:57:23;;;;;;;3.05;1.67;;;;;;;;;;5099379;28;20017;-83
2024/04/19 12:59:53;;;;;;;4.10;1.80;;;;;;;;;;5133730;27;20001;-82
2024/04/19 13:02:20;;;;;;;2.83;1.42;;;;;;;;;;5077939;28;20028;-82
2024/04/19 13:04:46;;;;;;;2.08;1.20;;;;;;;;;;5093919;28;20006;-83
2024/04/19 13:07:13;;;;;;;4.38;1.70;;;;;;;;;;5132293;27;20010;-82
2024/04/19 13:09:39;;;;;;;2.55;1.50;;;;;;;;;;5109577;28;20327;-83
2024/04/19 13:12:08;;;;;;;;;;;;;;;;;;5074358;28;20457;-82
2024/04/19 13:14:33;;;;;;;3.40;1.60;;;;;;;;;;5094244;28;19942;-83
2024/04/19 13:16:59;;;;;;;2.83;1.52;;;;;;;;;;5093604;28;20027;-83
2024/04/19 13:19:26;;;;;;;2.58;1.27;;;;;;;;;;5123199;27;20018;-82
2024/04/19 13:21:52;;;;;;;3.28;1.50;;;;;;;;;;5098972;27;20009;-82
2024/04/19 13:24:19;;;;;;;2.95;1.58;;;;;;;;;;5124491;27;20013;-81
2024/04/19 13:26:45;;;;;;;2.63;1.30;;;;;;;;;;5097622;27;20008;-81
2024/04/19 13:29:11;;;;;;;2.13;1.40;;;;;;;;;;5099602;27;20016;-80
2024/04/19 13:31:37;;;;;;;2.70;1.70;;;;;;;;;;5077213;27;20133;-81
2024/04/19 13:34:04;;;;;;;3.00;1.90;;;;;;;;;;5093739;28;20010;-82
2024/04/19 13:36:29;;;;;;;3.42;1.65;;;;;;;;;;5116611;27;20516;-82
2024/04/19 13:39:06;;;;;;;2.22;1.15;;;;;;;;;;5092806;28;20039;-83
2024/04/19 13:41:33;;;;;;;2.53;1.30;;;;;;;;;;5092156;28;20480;-82
2024/04/19 13:44:00;;;;;;;3.17;1.30;;;;;;;;;;5079537;28;20010;-81
2024/04/19 13:46:26;;;;;;;2.38;1.17;;;;;;;;;;5093610;28;20010;-80
2024/04/19 13:48:51;;;;;;;2.08;1.20;;;;;;;;;;5083910;28;20046;-82
2024/04/19 13:51:17;;;;;;;2.20;0.90;;;;;;;;;;5095284;28;20010;-82
2024/04/19 13:53:43;;;;;;;1.70;0.95;;;;;;;;;;5092322;28;20017;-80
2024/04/19 13:56:09;;;;;;;1.95;1.20;;;;;;;;;;5120933;27;20030;-82
2024/04/19 13:58:39;;;;;;;2.22;1.08;;;;;;;;;;5094554;28;20034;-81
2024/04/19 14:01:05;;;;;;;1.50;0.90;;;;;;;;;;5093056;28;20041;-81
2024/04/19 14:03:31;;;;;;;1.30;0.88;;;;;;;;;;5114264;27;20025;-82
2024/04/19 14:05:57;;;;;;;1.70;1.00;;;;;;;;;;5094768;28;20059;-81
2024/04/19 14:08:23;;;;;;;5.18;1.15;;;;;;;;;;5102196;28;20010;-83
2024/04/19 14:10:49;;;;;;;1.30;0.75;;;;;;;;;;5083394;28;20012;-82
2024/04/19 14:13:17;;;;;;;1.60;0.82;;;;;;;;;;5116256;27;20006;-82
2024/04/19 14:15:43;;;;;;;2.08;1.20;;;;;;;;;;5095707;27;20440;-80
2024/04/19 14:18:09;;;;;;;2.95;1.23;;;;;;;;;;5070505;27;20009;-81
2024/04/19 14:20:40;;;;;;;1.77;0.82;;;;;;;;;;5115525;27;20021;-81
2024/04/19 14:23:09;;;;;;;2.70;1.13;;;;;;;;;;5067199;28;20054;-82
2024/04/19 14:25:59;;;;;;;2.03;1.00;;;;;;;;;;5093811;27;20006;-81
2024/04/19 14:28:25;;;;;;;1.88;0.90;;;;;;;;;;5121951;27;20403;-80
2024/04/19 14:30:51;;;;;;;2.75;1.38;;;;;;;;;;5117907;27;20029;-82
2024/04/19 14:33:17;;;;;;;2.05;1.10;;;;;;;;;;5113930;27;20007;-82
2024/04/19 14:35:43;;;;;;;2.33;1.10;;;;;;;;;;5090417;27;20030;-81
2024/04/19 14:38:09;;;;;;;3.28;1.13;;;;;;;;;;5088353;27;20014;-80
2024/04/19 14:40:35;;;;;;;3.50;1.15;;;;;;;;;;5119887;27;20010;-81
2024/04/19 14:43:00;;;;;;;2.75;1.30;;;;;;;;;;5089590;27;20021;-79
2024/04/19 14:45:27;;;;;;;2.20;1.15;;;;;;;;;;5117534;27;20010;-82
2024/04/19 14:47:53;;;;;;;2.50;1.23;;;;;;;;;;5088316;28;20038;-80
2024/04/19 14:50:19;;;;;;;2.55;1.40;;;;;;;;;;5063847;28;20347;-82
2024/04/19 14:52:44;;;;;;;1.95;1.13;;;;;;;;;;5064634;27;20006;-82
2024/04/19 14:55:11;;;;;;;2.13;0.90;;;;;;;;;;5094815;27;20494;-82
2024/04/19 14:57:38;;;;;;;2.77;1.17;;;;;;;;;;5068411;27;20478;-83
2024/04/19 15:00:04;;;;;;;1.90;1.10;;;;;;;;;;5098803;27;20085;-82